createdAt,value
2019-05-12T00:01:38.952Z,99.90
2019-05-12T00:04:09.475Z,99.90
2019-05-12T00:06:38.904Z,99.90
2019-05-12T00:09:08.534Z,99.40
2019-05-12T00:11:38.350Z,99.60
2019-05-12T00:14:08.620Z,99.50
2019-05-12T00:16:38.589Z,99.90
2019-05-12T00:19:09.231Z,99.90
2019-05-12T00:21:39.865Z,99.90
2019-05-12T00:24:11.586Z,99.90
2019-05-12T00:26:42.521Z,99.90
2019-05-12T00:29:11.885Z,99.90
2019-05-12T00:31:41.209Z,99.90
2019-05-12T00:34:10.536Z,99.90
2019-05-12T00:36:39.860Z,99.90
2019-05-12T00:39:09.194Z,99.90
2019-05-12T00:41:39.067Z,99.90
2019-05-12T00:44:09.075Z,99.60
2019-05-12T00:46:38.787Z,99.90
2019-05-12T00:49:08.365Z,99.90
2019-05-12T00:51:38.452Z,99.90
2019-05-12T00:54:09.243Z,99.90
2019-05-12T00:56:39.375Z,99.90
2019-05-12T00:59:08.775Z,99.90
2019-05-12T01:01:38.289Z,99.80
2019-05-12T01:04:08.778Z,99.90
2019-05-12T01:06:39.555Z,99.90
2019-05-12T01:09:09.291Z,99.90
2019-05-12T01:11:38.691Z,99.90
2019-05-12T01:14:08.713Z,99.90
2019-05-12T01:16:39.317Z,99.90
2019-05-12T01:19:08.684Z,99.90
2019-05-12T01:21:38.052Z,99.90
2019-05-12T01:24:09.071Z,99.90
2019-05-12T01:26:39.612Z,99.90
2019-05-12T01:29:08.939Z,99.90
2019-05-12T01:31:40.955Z,99.90
2019-05-12T01:34:10.276Z,99.90
2019-05-12T01:36:39.584Z,99.90
2019-05-12T01:39:09.049Z,99.90
2019-05-12T01:41:38.996Z,99.90
2019-05-12T01:44:08.959Z,99.90
2019-05-12T01:46:38.572Z,99.90
2019-05-12T01:49:08.422Z,99.90
2019-05-12T01:51:38.488Z,99.90
2019-05-12T01:54:13.864Z,99.90
2019-05-12T01:56:39.099Z,99.90
2019-05-12T01:59:08.424Z,99.90
2019-05-12T02:01:38.914Z,99.90
2019-05-12T02:04:07.906Z,99.90
2019-05-12T02:06:38.706Z,99.90
2019-05-12T02:09:10.921Z,99.90
2019-05-12T02:11:40.220Z,99.90
2019-05-12T02:14:09.558Z,99.90
2019-05-12T02:16:38.979Z,99.90
2019-05-12T02:19:09.305Z,99.90
2019-05-12T02:21:38.756Z,99.90
2019-05-12T02:24:22.321Z,99.90
2019-05-12T02:26:39.189Z,99.90
2019-05-12T02:29:08.515Z,99.90
2019-05-12T02:31:39.633Z,99.90
2019-05-12T02:34:08.851Z,99.90
2019-05-12T02:36:38.158Z,99.90
2019-05-12T02:39:08.434Z,99.90
2019-05-12T02:41:38.000Z,99.90
2019-05-12T02:44:07.425Z,99.90
2019-05-12T02:46:36.736Z,99.90
2019-05-12T02:49:07.048Z,99.90
2019-05-12T02:51:36.673Z,99.90
2019-05-12T02:54:06.554Z,99.90
2019-05-12T02:56:36.416Z,99.90
2019-05-12T02:59:07.952Z,99.90
2019-05-12T03:01:39.003Z,99.90
2019-05-12T03:04:10.908Z,99.90
2019-05-12T03:06:44.568Z,99.90
2019-05-12T03:09:15.112Z,99.90
2019-05-12T03:11:45.796Z,99.90
2019-05-12T03:14:15.885Z,99.90
2019-05-12T03:16:45.655Z,99.90
2019-05-12T03:19:15.278Z,99.90
2019-05-12T03:21:45.806Z,99.90
2019-05-12T03:24:17.508Z,99.90
2019-05-12T03:26:46.121Z,99.90
2019-05-12T03:29:15.456Z,99.90
2019-05-12T03:31:48.431Z,99.90
2019-05-12T03:34:19.775Z,99.90
2019-05-12T03:36:51.181Z,99.90
2019-05-12T03:39:16.545Z,99.90
2019-05-12T03:41:45.918Z,99.90
2019-05-12T03:44:16.214Z,99.90
2019-05-12T03:46:45.904Z,99.90
2019-05-12T03:49:15.726Z,99.90
2019-05-12T03:51:45.791Z,99.90
2019-05-12T03:54:15.595Z,99.90
2019-05-12T03:56:45.224Z,99.90
2019-05-12T03:59:15.264Z,99.90
2019-05-12T04:01:45.354Z,99.90
2019-05-12T04:04:15.420Z,99.90
2019-05-12T04:06:45.370Z,99.90
2019-05-12T04:09:15.735Z,99.90
2019-05-12T04:11:46.488Z,99.90
2019-05-12T04:14:15.833Z,99.90
2019-05-12T04:16:45.414Z,99.90
2019-05-12T04:19:15.122Z,99.90
2019-05-12T04:21:44.943Z,99.90
2019-05-12T04:24:14.572Z,99.90
2019-05-12T04:26:44.861Z,99.90
2019-05-12T04:29:15.476Z,99.90
2019-05-12T04:31:45.148Z,99.90
2019-05-12T04:34:18.972Z,99.90
2019-05-12T04:36:46.549Z,99.90
2019-05-12T04:39:15.889Z,99.90
2019-05-12T04:41:45.215Z,99.90
2019-05-12T04:44:15.363Z,99.90
2019-05-12T04:46:45.400Z,99.90
2019-05-12T04:49:15.804Z,99.90
2019-05-12T04:51:45.515Z,99.90
2019-05-12T04:54:15.454Z,99.90
2019-05-12T04:56:45.122Z,99.90
2019-05-12T04:59:15.780Z,99.90
2019-05-12T05:01:45.793Z,99.90
2019-05-12T05:04:15.667Z,99.90
2019-05-12T05:06:45.350Z,99.90
2019-05-12T05:09:14.807Z,99.90
2019-05-12T05:11:45.296Z,99.90
2019-05-12T05:14:14.829Z,99.90
2019-05-12T05:16:45.162Z,99.80
2019-05-12T05:19:16.003Z,99.50
2019-05-12T05:21:45.339Z,98.70
2019-05-12T05:24:14.672Z,99.30
2019-05-12T05:26:45.153Z,99.10
2019-05-12T05:29:14.485Z,99.10
2019-05-12T05:31:44.298Z,99.40
2019-05-12T05:34:14.819Z,99.30
2019-05-12T05:36:45.492Z,99.10
2019-05-12T05:39:14.796Z,99.20
2019-05-12T05:41:46.459Z,99.90
2019-05-12T05:44:15.161Z,98.60
2019-05-12T05:46:49.905Z,98.40
2019-05-12T05:49:15.567Z,97.70
2019-05-12T05:51:53.712Z,97.90
2019-05-12T05:54:22.738Z,98.10
2019-05-12T05:56:58.436Z,97.60
2019-05-12T05:59:21.962Z,97.80
2019-05-12T06:01:52.489Z,97.80
2019-05-12T06:04:23.799Z,97.80
2019-05-12T06:06:55.901Z,96.90
2019-05-12T06:09:24.332Z,96.90
2019-05-12T06:11:58.963Z,96.50
2019-05-12T06:14:25.669Z,97.50
2019-05-12T06:16:54.988Z,96.90
2019-05-12T06:19:26.246Z,97.10
2019-05-12T06:21:55.409Z,96.50
2019-05-12T06:24:24.743Z,97.30
2019-05-12T06:27:00.248Z,97.30
2019-05-12T06:29:25.291Z,97.40
2019-05-12T06:32:00.048Z,97.10
2019-05-12T06:34:28.846Z,96.80
2019-05-12T06:37:05.181Z,96.10
2019-05-12T06:39:29.256Z,97.00
2019-05-12T06:42:11.615Z,95.90
2019-05-12T06:44:29.601Z,97.00
2019-05-12T06:47:03.544Z,96.70
2019-05-12T06:49:29.968Z,95.70
2019-05-12T06:52:01.633Z,95.90
2019-05-12T06:54:30.320Z,95.40
2019-05-12T06:57:18.649Z,93.90
2019-05-12T06:59:30.639Z,95.30
2019-05-12T07:02:00.560Z,94.70
2019-05-12T07:04:30.103Z,95.30
2019-05-12T07:07:00.656Z,95.70
2019-05-12T07:09:32.533Z,95.80
2019-05-12T07:12:03.784Z,96.40
2019-05-12T07:14:34.508Z,95.30
2019-05-12T07:17:10.776Z,94.70
2019-05-12T07:19:40.076Z,95.30
2019-05-12T07:22:21.743Z,95.50
2019-05-12T07:24:40.940Z,94.30
2019-05-12T07:27:11.530Z,92.70
2019-05-12T07:29:40.824Z,92.60
2019-05-12T07:32:16.427Z,91.60
2019-05-12T07:34:41.170Z,92.00
2019-05-12T07:37:12.233Z,92.50
2019-05-12T07:39:49.110Z,92.70
2019-05-12T07:42:13.523Z,92.60
2019-05-12T07:44:44.748Z,93.20
2019-05-12T07:47:14.050Z,92.70
2019-05-12T07:49:44.094Z,92.70
2019-05-12T07:52:13.863Z,92.50
2019-05-12T07:54:44.443Z,92.10
2019-05-12T07:57:17.390Z,91.20
2019-05-12T07:59:45.076Z,91.60
2019-05-12T08:02:14.439Z,91.70
2019-05-12T08:04:44.922Z,90.70
2019-05-12T08:07:14.618Z,90.90
2019-05-12T08:09:44.039Z,89.70
2019-05-12T08:12:19.453Z,90.20
2019-05-12T08:14:44.364Z,87.60
2019-05-12T08:17:18.971Z,88.90
2019-05-12T08:19:44.788Z,87.30
2019-05-12T08:22:18.865Z,88.00
2019-05-12T08:24:48.228Z,91.00
2019-05-12T08:27:20.071Z,88.10
2019-05-12T08:29:54.406Z,90.70
2019-05-12T08:32:20.331Z,86.50
2019-05-12T08:34:49.852Z,82.60
2019-05-12T08:37:19.156Z,80.60
2019-05-12T08:39:53.270Z,81.50
2019-05-12T08:42:19.479Z,79.00
2019-05-12T08:44:48.836Z,78.60
2019-05-12T08:47:18.137Z,76.00
2019-05-12T08:49:55.116Z,71.90
2019-05-12T08:52:18.492Z,73.50
2019-05-12T08:54:49.559Z,67.60
2019-05-12T08:57:20.181Z,68.30
2019-05-12T08:59:54.695Z,72.80
2019-05-12T09:02:20.499Z,73.30
2019-05-12T09:04:51.800Z,73.30
2019-05-12T09:07:21.273Z,70.60
2019-05-12T09:09:50.648Z,74.30
2019-05-12T09:12:20.001Z,74.70
2019-05-12T09:14:49.332Z,73.50
2019-05-12T09:17:18.829Z,70.70
2019-05-12T09:19:48.143Z,66.40
2019-05-12T09:22:20.824Z,64.10
2019-05-12T09:24:48.465Z,63.30
2019-05-12T09:27:17.787Z,60.20
2019-05-12T09:29:47.090Z,63.70
2019-05-12T09:32:16.432Z,63.10
2019-05-12T09:34:52.584Z,65.10
2019-05-12T09:37:17.720Z,63.40
2019-05-12T09:39:50.807Z,64.00
2019-05-12T09:42:24.025Z,60.40
2019-05-12T09:44:51.123Z,62.40
2019-05-12T09:47:25.158Z,66.20
2019-05-12T09:49:53.463Z,60.20
2019-05-12T09:52:26.983Z,59.90
2019-05-12T09:54:53.539Z,62.70
2019-05-12T09:57:34.720Z,61.50
2019-05-12T10:00:04.235Z,62.70
2019-05-12T10:02:32.941Z,61.50
2019-05-12T10:05:03.958Z,64.10
2019-05-12T10:07:33.976Z,62.40
2019-05-12T10:10:04.931Z,59.90
2019-05-12T10:12:36.579Z,61.10
2019-05-12T10:15:08.485Z,61.80
2019-05-12T10:17:37.874Z,61.20
2019-05-12T10:20:08.331Z,59.50
2019-05-12T10:22:40.456Z,61.80
2019-05-12T10:25:14.446Z,58.90
2019-05-12T10:27:44.420Z,58.60
2019-05-12T10:30:17.449Z,55.70
2019-05-12T10:32:45.622Z,55.30
2019-05-12T10:35:21.167Z,52.70
2019-05-12T10:37:47.410Z,54.20
2019-05-12T10:40:17.511Z,56.00
2019-05-12T10:42:49.453Z,58.40
2019-05-12T10:45:20.689Z,58.30
2019-05-12T10:47:50.248Z,53.70
2019-05-12T10:50:19.709Z,53.50
2019-05-12T10:52:49.101Z,49.50
2019-05-12T10:55:18.524Z,49.10
2019-05-12T10:57:52.995Z,51.00
2019-05-12T11:00:25.059Z,50.00
2019-05-12T11:02:50.108Z,51.20
2019-05-12T11:05:21.572Z,56.80
2019-05-12T11:07:50.699Z,55.80
2019-05-12T11:10:20.451Z,56.80
2019-05-12T11:12:49.864Z,57.50
2019-05-12T11:15:19.165Z,57.60
2019-05-12T11:17:53.523Z,59.00
2019-05-12T11:20:25.094Z,59.20
2019-05-12T11:22:54.667Z,58.10
2019-05-12T11:25:24.628Z,59.50
2019-05-12T11:27:54.971Z,55.90
2019-05-12T11:30:24.642Z,56.90
2019-05-12T11:32:54.257Z,58.10
2019-05-12T11:35:23.824Z,57.00
2019-05-12T11:37:53.832Z,58.50
2019-05-12T11:40:23.930Z,57.80
2019-05-12T11:42:59.700Z,57.50
2019-05-12T11:45:24.531Z,58.90
2019-05-12T11:47:59.188Z,59.10
2019-05-12T11:50:25.095Z,58.90
2019-05-12T11:52:57.778Z,59.10
2019-05-12T11:55:31.322Z,61.00
2019-05-12T11:58:00.359Z,62.30
2019-05-12T12:00:33.467Z,62.80
2019-05-12T12:03:12.092Z,64.80
2019-05-12T12:05:38.092Z,63.10
2019-05-12T12:08:06.076Z,61.80
2019-05-12T12:10:39.617Z,62.10
2019-05-12T12:13:06.473Z,61.70
2019-05-12T12:15:35.796Z,63.30
2019-05-12T12:18:13.089Z,64.60
2019-05-12T12:20:36.278Z,66.90
2019-05-12T12:23:10.851Z,68.10
2019-05-12T12:25:36.704Z,69.10
2019-05-12T12:28:06.211Z,66.00
2019-05-12T12:30:35.697Z,67.60
2019-05-12T12:33:05.161Z,68.00
2019-05-12T12:35:34.881Z,68.40
2019-05-12T12:38:04.714Z,68.80
2019-05-12T12:40:34.084Z,66.20
2019-05-12T12:43:04.017Z,66.70
2019-05-12T12:45:39.912Z,60.20
2019-05-12T12:48:06.397Z,58.90
2019-05-12T12:50:35.797Z,56.60
2019-05-12T12:53:05.174Z,58.60
2019-05-12T12:55:37.918Z,59.10
2019-05-12T12:58:05.778Z,60.00
2019-05-12T13:00:46.628Z,63.30
2019-05-12T13:03:06.280Z,64.00
2019-05-12T13:05:35.647Z,66.00
2019-05-12T13:08:05.199Z,67.50
2019-05-12T13:10:34.547Z,67.80
2019-05-12T13:13:16.270Z,64.00
2019-05-12T13:15:45.578Z,60.40
2019-05-12T13:18:24.061Z,60.30
2019-05-12T13:20:45.939Z,62.80
2019-05-12T13:23:15.393Z,60.10
2019-05-12T13:25:50.803Z,60.10
2019-05-12T13:28:19.073Z,58.00
2019-05-12T13:30:49.700Z,59.00
2019-05-12T13:33:18.832Z,63.00
2019-05-12T13:35:50.293Z,65.60
2019-05-12T13:38:19.153Z,69.40
2019-05-12T13:40:48.487Z,73.40
2019-05-12T13:43:19.637Z,76.30
2019-05-12T13:45:48.923Z,77.50
2019-05-12T13:48:20.090Z,77.20
2019-05-12T13:50:49.268Z,79.30
2019-05-12T13:53:20.181Z,78.60
2019-05-12T13:55:49.780Z,74.80
2019-05-12T13:58:19.171Z,75.40
2019-05-12T14:01:09.174Z,78.80
2019-05-12T14:03:19.490Z,74.70
2019-05-12T14:05:50.728Z,71.30
2019-05-12T14:08:20.800Z,69.50
2019-05-12T14:10:56.639Z,62.70
2019-05-12T14:13:40.487Z,58.50
2019-05-12T14:16:09.821Z,59.70
2019-05-12T14:18:39.157Z,59.00
2019-05-12T14:21:08.468Z,58.70
2019-05-12T14:23:37.808Z,60.10
2019-05-12T14:26:09.196Z,61.30
2019-05-12T14:28:39.381Z,62.30
2019-05-12T14:31:09.264Z,58.50
2019-05-12T14:33:39.491Z,56.20
2019-05-12T14:36:13.740Z,49.70
2019-05-12T14:38:41.107Z,46.10
2019-05-12T14:41:11.828Z,47.60
2019-05-12T14:43:41.443Z,46.10
2019-05-12T14:46:10.865Z,44.50
2019-05-12T14:48:45.158Z,44.20
2019-05-12T14:51:14.047Z,44.50
2019-05-12T14:53:46.053Z,49.20
2019-05-12T14:56:14.251Z,48.00
2019-05-12T14:58:44.238Z,49.20
2019-05-12T15:01:14.254Z,49.40
2019-05-12T15:03:47.724Z,49.90
2019-05-12T15:06:19.502Z,50.60
2019-05-12T15:08:45.967Z,50.00
2019-05-12T15:11:15.303Z,51.60
2019-05-12T15:13:44.632Z,50.90
2019-05-12T15:16:13.960Z,53.00
2019-05-12T15:18:48.276Z,50.00
2019-05-12T15:21:14.387Z,47.30
2019-05-12T15:23:44.233Z,47.00
2019-05-12T15:26:15.752Z,45.60
2019-05-12T15:28:44.621Z,41.70
2019-05-12T15:31:14.450Z,40.60
2019-05-12T15:33:45.016Z,39.70
2019-05-12T15:36:14.332Z,39.10
2019-05-12T15:38:43.896Z,37.10
2019-05-12T15:41:16.654Z,36.80
2019-05-12T15:43:48.928Z,38.90
2019-05-12T15:46:18.041Z,38.90
2019-05-12T15:49:03.439Z,38.50
2019-05-12T15:51:53.839Z,37.30
2019-05-12T15:54:36.213Z,38.30
2019-05-12T15:57:09.013Z,38.50
2019-05-12T15:59:54.581Z,37.00
2019-05-12T16:02:36.230Z,39.20
2019-05-12T16:05:07.976Z,38.70
2019-05-12T16:07:39.527Z,37.30
2019-05-12T16:10:08.662Z,39.80
2019-05-12T16:12:37.997Z,39.20
2019-05-12T16:15:11.536Z,38.90
2019-05-12T16:17:39.256Z,37.90
2019-05-12T16:20:09.020Z,37.90
2019-05-12T16:22:44.468Z,37.30
2019-05-12T16:25:10.094Z,36.50
2019-05-12T16:27:39.492Z,36.10
2019-05-12T16:30:09.251Z,37.00
2019-05-12T16:32:43.100Z,37.50
2019-05-12T16:35:09.937Z,39.00
2019-05-12T16:37:39.250Z,40.40
2019-05-12T16:40:08.917Z,42.20
2019-05-12T16:42:40.919Z,44.20
2019-05-12T16:45:10.339Z,41.20
2019-05-12T16:47:39.031Z,40.70
2019-05-12T16:50:15.030Z,42.00
2019-05-12T16:52:40.988Z,42.60
2019-05-12T16:55:10.772Z,42.70
2019-05-12T16:57:47.538Z,43.70
2019-05-12T17:00:13.611Z,44.30
2019-05-12T17:02:52.085Z,44.20
2019-05-12T17:05:19.789Z,42.80
2019-05-12T17:07:44.829Z,44.20
2019-05-12T17:10:16.671Z,44.90
2019-05-12T17:12:48.299Z,44.20
2019-05-12T17:15:16.571Z,44.80
2019-05-12T17:17:50.728Z,45.10
2019-05-12T17:20:17.169Z,45.10
2019-05-12T17:22:54.410Z,45.60
2019-05-12T17:25:18.745Z,45.40
2019-05-12T17:27:48.141Z,43.70
2019-05-12T17:30:17.845Z,44.60
2019-05-12T17:32:57.935Z,44.70
2019-05-12T17:35:20.251Z,44.40
2019-05-12T17:37:49.238Z,44.50
2019-05-12T17:40:20.398Z,45.30
2019-05-12T17:42:49.971Z,47.50
2019-05-12T17:45:20.655Z,47.10
2019-05-12T17:47:56.938Z,47.00
2019-05-12T17:50:24.032Z,49.00
2019-05-12T17:52:58.728Z,48.30
2019-05-12T17:55:23.691Z,49.50
2019-05-12T17:57:56.306Z,49.00
2019-05-12T18:00:24.176Z,48.60
2019-05-12T18:02:56.194Z,49.30
2019-05-12T18:05:24.539Z,50.40
2019-05-12T18:07:55.480Z,49.60
2019-05-12T18:10:24.967Z,50.50
2019-05-12T18:12:54.326Z,51.50
2019-05-12T18:15:32.488Z,50.00
2019-05-12T18:17:54.761Z,50.60
2019-05-12T18:20:24.062Z,51.60
2019-05-12T18:22:53.637Z,52.50
2019-05-12T18:25:30.319Z,52.50
2019-05-12T18:27:54.391Z,53.40
2019-05-12T18:30:24.047Z,53.80
2019-05-12T18:33:04.043Z,54.10
2019-05-12T18:35:24.559Z,54.80
2019-05-12T18:37:54.208Z,56.00
2019-05-12T18:40:25.147Z,56.60
2019-05-12T18:42:56.599Z,57.00
2019-05-12T18:45:25.968Z,55.40
2019-05-12T18:47:55.462Z,57.00
2019-05-12T18:50:27.099Z,58.20
2019-05-12T18:52:56.577Z,58.10
2019-05-12T18:55:29.335Z,56.90
2019-05-12T18:57:57.040Z,58.50
2019-05-12T19:00:26.792Z,58.80
2019-05-12T19:02:59.593Z,60.20
2019-05-12T19:05:30.683Z,61.30
2019-05-12T19:07:58.655Z,63.20
2019-05-12T19:10:28.179Z,63.20
2019-05-12T19:13:01.959Z,63.60
2019-05-12T19:15:28.828Z,59.10
2019-05-12T19:17:58.323Z,60.40
2019-05-12T19:20:31.263Z,59.40
2019-05-12T19:23:00.032Z,58.80
2019-05-12T19:25:30.197Z,59.80
2019-05-12T19:28:05.973Z,60.30
2019-05-12T19:30:34.430Z,61.80
2019-05-12T19:33:06.373Z,63.10
2019-05-12T19:35:36.087Z,63.80
2019-05-12T19:38:05.193Z,63.60
2019-05-12T19:40:34.605Z,63.80
2019-05-12T19:43:08.050Z,64.90
2019-05-12T19:45:35.052Z,65.80
2019-05-12T19:48:04.829Z,67.80
2019-05-12T19:50:34.193Z,67.90
2019-05-12T19:53:04.212Z,67.20
2019-05-12T19:55:33.937Z,68.60
2019-05-12T19:58:10.980Z,65.30
2019-05-12T20:00:34.547Z,64.80
2019-05-12T20:03:04.864Z,63.00
2019-05-12T20:05:43.334Z,65.20
2019-05-12T20:08:13.633Z,63.40
2019-05-12T20:10:49.254Z,61.50
2019-05-12T20:13:15.071Z,61.40
2019-05-12T20:15:48.473Z,63.00
2019-05-12T20:18:18.029Z,63.30
2019-05-12T20:20:48.412Z,65.00
2019-05-12T20:23:18.039Z,62.60
2019-05-12T20:25:47.515Z,63.60
2019-05-12T20:28:16.858Z,63.30
2019-05-12T20:30:46.165Z,62.80
2019-05-12T20:33:15.489Z,63.10
2019-05-12T20:35:49.114Z,62.00
2019-05-12T20:38:15.888Z,63.80
2019-05-12T20:40:45.222Z,62.50
2019-05-12T20:43:14.944Z,62.10
2019-05-12T20:45:45.915Z,65.20
2019-05-12T20:48:19.638Z,64.10
2019-05-12T20:50:46.443Z,63.00
2019-05-12T20:53:15.780Z,64.50
2019-05-12T20:55:57.759Z,65.50
2019-05-12T20:58:34.246Z,65.10
2019-05-12T21:00:58.137Z,64.50
2019-05-12T21:03:27.469Z,64.50
2019-05-12T21:06:00.422Z,66.90
2019-05-12T21:08:27.831Z,68.20
2019-05-12T21:10:57.132Z,69.00
2019-05-12T21:13:31.643Z,68.60
2019-05-12T21:15:57.475Z,66.60
2019-05-12T21:18:26.818Z,68.40
2019-05-12T21:20:56.135Z,70.50
2019-05-12T21:23:25.498Z,69.70
2019-05-12T21:25:58.227Z,74.20
2019-05-12T21:28:25.854Z,76.60
2019-05-12T21:30:55.841Z,79.10
2019-05-12T21:33:25.400Z,79.60
2019-05-12T21:35:54.890Z,80.90
2019-05-12T21:38:29.389Z,80.70
2019-05-12T21:40:55.411Z,81.80
2019-05-12T21:43:24.755Z,83.30
2019-05-12T21:45:54.092Z,83.20
2019-05-12T21:48:25.691Z,85.70
2019-05-12T21:50:55.574Z,85.40
2019-05-12T21:53:25.189Z,85.80
2019-05-12T21:56:03.638Z,87.30
2019-05-12T21:58:25.574Z,87.70
2019-05-12T22:01:03.922Z,88.10
2019-05-12T22:03:29.321Z,87.60
2019-05-12T22:06:06.866Z,88.40
2019-05-12T22:08:30.868Z,88.10
2019-05-12T22:11:00.741Z,89.70
2019-05-12T22:13:32.457Z,88.70
2019-05-12T22:16:03.861Z,90.00
2019-05-12T22:18:33.386Z,90.50
2019-05-12T22:21:06.513Z,90.80
2019-05-12T22:23:33.916Z,91.20
2019-05-12T22:26:04.515Z,91.30
2019-05-12T22:28:34.369Z,91.40
2019-05-12T22:31:04.077Z,91.10
2019-05-12T22:33:33.569Z,91.10
2019-05-12T22:36:14.085Z,90.60
2019-05-12T22:38:35.206Z,90.30
2019-05-12T22:41:04.581Z,90.30
2019-05-12T22:43:41.012Z,91.10
2019-05-12T22:46:05.096Z,91.20
2019-05-12T22:48:37.356Z,91.60
2019-05-12T22:51:14.313Z,91.40
2019-05-12T22:53:36.576Z,91.90
2019-05-12T22:56:12.261Z,91.90
2019-05-12T22:58:36.926Z,91.70
2019-05-12T23:01:06.478Z,92.20
2019-05-12T23:03:35.802Z,91.60
2019-05-12T23:06:20.381Z,92.30
2019-05-12T23:08:38.733Z,91.90
2019-05-12T23:11:07.296Z,92.00
2019-05-12T23:13:40.977Z,91.60
2019-05-12T23:16:07.630Z,92.30
2019-05-12T23:18:37.083Z,92.20
2019-05-12T23:21:12.539Z,92.20
2019-05-12T23:23:37.392Z,92.60
2019-05-12T23:26:06.738Z,92.50
2019-05-12T23:28:40.611Z,92.10
2019-05-12T23:31:07.160Z,92.40
2019-05-12T23:33:36.940Z,92.40
2019-05-12T23:36:09.647Z,92.80
2019-05-12T23:38:37.387Z,92.80
2019-05-12T23:41:06.762Z,93.60
2019-05-12T23:43:36.084Z,93.80
2019-05-12T23:46:05.498Z,93.90
2019-05-12T23:48:34.811Z,93.00
2019-05-12T23:51:04.158Z,93.80
2019-05-12T23:53:34.564Z,94.20
2019-05-12T23:56:04.031Z,94.30
2019-05-12T23:58:33.421Z,94.20
